sensor_id;sensor_type;location;lat;lon;timestamp;pressure;altitude;pressure_sealevel;temperature;humidity
65359;BME280;52491;45.900;6.346;2022-07-05T00:01:50;94226.75;;;27.05;44.46
65359;BME280;52491;45.900;6.346;2022-07-05T00:04:16;94220.84;;;27.02;44.68
65359;BME280;52491;45.900;6.346;2022-07-05T00:06:42;94216.34;;;27.03;44.60
65359;BME280;52491;45.900;6.346;2022-07-05T00:09:28;94224.34;;;27.03;44.68
65359;BME280;52491;45.900;6.346;2022-07-05T00:11:54;94219.00;;;27.03;44.17
65359;BME280;52491;45.900;6.346;2022-07-05T00:14:20;94222.75;;;27.02;44.45
65359;BME280;52491;45.900;6.346;2022-07-05T00:16:45;94226.22;;;27.02;44.32
65359;BME280;52491;45.900;6.346;2022-07-05T00:19:11;94221.16;;;27.01;44.46
65359;BME280;52491;45.900;6.346;2022-07-05T00:21:37;94223.03;;;27.00;44.18
65359;BME280;52491;45.900;6.346;2022-07-05T00:24:02;94220.34;;;27.00;44.42
65359;BME280;52491;45.900;6.346;2022-07-05T00:26:28;94228.38;;;27.00;44.35
65359;BME280;52491;45.900;6.346;2022-07-05T00:28:54;94223.81;;;27.01;44.38
65359;BME280;52491;45.900;6.346;2022-07-05T00:31:19;94231.06;;;27.00;44.25
65359;BME280;52491;45.900;6.346;2022-07-05T00:33:45;94228.38;;;27.00;44.45
65359;BME280;52491;45.900;6.346;2022-07-05T00:36:10;94233.72;;;27.00;44.47
65359;BME280;52491;45.900;6.346;2022-07-05T00:38:36;94225.97;;;26.99;44.31
65359;BME280;52491;45.900;6.346;2022-07-05T00:41:01;94229.72;;;26.98;44.38
65359;BME280;52491;45.900;6.346;2022-07-05T00:43:27;94228.38;;;27.00;44.39
65359;BME280;52491;45.900;6.346;2022-07-05T00:45:53;94234.78;;;26.99;44.15
65359;BME280;52491;45.900;6.346;2022-07-05T00:48:18;94222.50;;;26.98;44.31
65359;BME280;52491;45.900;6.346;2022-07-05T00:50:44;94227.84;;;26.98;44.14
65359;BME280;52491;45.900;6.346;2022-07-05T00:53:09;94222.50;;;26.98;44.09
65359;BME280;52491;45.900;6.346;2022-07-05T00:55:36;94215.78;;;26.96;44.19
65359;BME280;52491;45.900;6.346;2022-07-05T00:58:02;94217.38;;;26.97;44.18
65359;BME280;52491;45.900;6.346;2022-07-05T01:00:28;94220.91;;;26.97;44.29
65359;BME280;52491;45.900;6.346;2022-07-05T01:02:54;94214.72;;;26.97;44.12
65359;BME280;52491;45.900;6.346;2022-07-05T01:05:19;94216.59;;;26.96;44.18
65359;BME280;52491;45.900;6.346;2022-07-05T01:07:47;94218.22;;;26.97;44.25
65359;BME280;52491;45.900;6.346;2022-07-05T01:10:13;94219.28;;;26.96;44.21
65359;BME280;52491;45.900;6.346;2022-07-05T01:12:39;94205.88;;;26.96;44.00
65359;BME280;52491;45.900;6.346;2022-07-05T01:15:06;94208.56;;;26.96;44.21
65359;BME280;52491;45.900;6.346;2022-07-05T01:17:34;94209.66;;;26.95;43.88
65359;BME280;52491;45.900;6.346;2022-07-05T01:20:01;94204.84;;;26.92;44.04
65359;BME280;52491;45.900;6.346;2022-07-05T01:22:27;94212.59;;;26.94;44.25
65359;BME280;52491;45.900;6.346;2022-07-05T01:24:53;94217.13;;;26.93;44.22
65359;BME280;52491;45.900;6.346;2022-07-05T01:27:20;94212.31;;;26.95;44.19
65359;BME280;52491;45.900;6.346;2022-07-05T01:29:45;94214.22;;;26.95;44.27
65359;BME280;52491;45.900;6.346;2022-07-05T01:32:12;94220.34;;;26.95;44.00
65359;BME280;52491;45.900;6.346;2022-07-05T01:34:39;94212.59;;;26.94;44.17
65359;BME280;52491;45.900;6.346;2022-07-05T01:37:05;94214.22;;;26.95;44.09
65359;BME280;52491;45.900;6.346;2022-07-05T01:39:32;94213.66;;;26.93;43.89
65359;BME280;52491;45.900;6.346;2022-07-05T01:41:58;94219.00;;;26.93;44.09
65359;BME280;52491;45.900;6.346;2022-07-05T01:44:23;94226.25;;;26.92;44.16
65359;BME280;52491;45.900;6.346;2022-07-05T01:46:51;94221.69;;;26.93;44.26
65359;BME280;52491;45.900;6.346;2022-07-05T01:49:20;94221.94;;;26.91;43.85
65359;BME280;52491;45.900;6.346;2022-07-05T01:51:59;94227.03;;;26.93;43.87
65359;BME280;52491;45.900;6.346;2022-07-05T01:54:28;94220.34;;;26.90;43.87
65359;BME280;52491;45.900;6.346;2022-07-05T01:56:53;94229.97;;;26.91;44.13
65359;BME280;52491;45.900;6.346;2022-07-05T01:59:19;94231.06;;;26.90;44.01
65359;BME280;52491;45.900;6.346;2022-07-05T02:01:45;94220.66;;;26.89;43.90
65359;BME280;52491;45.900;6.346;2022-07-05T02:04:11;94232.13;;;26.89;43.90
65359;BME280;52491;45.900;6.346;2022-07-05T02:06:37;94225.72;;;26.90;43.89
65359;BME280;52491;45.900;6.346;2022-07-05T02:09:04;94223.56;;;26.92;43.61
65359;BME280;52491;45.900;6.346;2022-07-05T02:11:31;94224.38;;;26.93;43.70
65359;BME280;52491;45.900;6.346;2022-07-05T02:14:00;94218.47;;;26.91;44.01
65359;BME280;52491;45.900;6.346;2022-07-05T02:16:26;94221.44;;;26.89;43.77
65359;BME280;52491;45.900;6.346;2022-07-05T02:18:52;94219.81;;;26.88;43.79
65359;BME280;52491;45.900;6.346;2022-07-05T02:21:18;94220.91;;;26.87;43.68
65359;BME280;52491;45.900;6.346;2022-07-05T02:23:44;94219.31;;;26.86;43.87
65359;BME280;52491;45.900;6.346;2022-07-05T02:26:09;94223.56;;;26.87;43.79
65359;BME280;52491;45.900;6.346;2022-07-05T02:28:35;94220.09;;;26.87;43.67
65359;BME280;52491;45.900;6.346;2022-07-05T02:31:01;94228.13;;;26.87;43.62
65359;BME280;52491;45.900;6.346;2022-07-05T02:33:26;94223.81;;;26.86;43.69
65359;BME280;52491;45.900;6.346;2022-07-05T02:35:52;94220.34;;;26.85;43.62
65359;BME280;52491;45.900;6.346;2022-07-05T02:38:17;94222.78;;;26.87;43.58
65359;BME280;52491;45.900;6.346;2022-07-05T02:40:43;94221.16;;;26.86;43.60
65359;BME280;52491;45.900;6.346;2022-07-05T02:43:09;94216.63;;;26.86;43.36
65359;BME280;52491;45.900;6.346;2022-07-05T02:45:34;94219.31;;;26.86;44.00
65359;BME280;52491;45.900;6.346;2022-07-05T02:48:00;94223.81;;;26.86;43.32
65359;BME280;52491;45.900;6.346;2022-07-05T02:50:25;94224.91;;;26.85;43.68
65359;BME280;52491;45.900;6.346;2022-07-05T02:52:51;94219.56;;;26.85;43.55
65359;BME280;52491;45.900;6.346;2022-07-05T02:55:17;94220.34;;;26.85;43.83
65359;BME280;52491;45.900;6.346;2022-07-05T02:57:42;94224.91;;;26.85;43.60
65359;BME280;52491;45.900;6.346;2022-07-05T03:00:08;94223.81;;;26.86;43.62
65359;BME280;52491;45.900;6.346;2022-07-05T03:02:34;94216.34;;;26.83;43.60
65359;BME280;52491;45.900;6.346;2022-07-05T03:05:00;94225.72;;;26.85;43.33
65359;BME280;52491;45.900;6.346;2022-07-05T03:07:25;94220.66;;;26.84;43.21
65359;BME280;52491;45.900;6.346;2022-07-05T03:09:51;94223.81;;;26.86;43.46
65359;BME280;52491;45.900;6.346;2022-07-05T03:12:16;94232.13;;;26.84;43.49
65359;BME280;52491;45.900;6.346;2022-07-05T03:14:42;94224.13;;;26.84;43.41
65359;BME280;52491;45.900;6.346;2022-07-05T03:17:08;94220.34;;;26.85;43.40
65359;BME280;52491;45.900;6.346;2022-07-05T03:19:33;94221.97;;;26.86;43.42
65359;BME280;52491;45.900;6.346;2022-07-05T03:21:59;94215.81;;;26.86;43.45
65359;BME280;52491;45.900;6.346;2022-07-05T03:24:25;94216.63;;;26.86;43.46
65359;BME280;52491;45.900;6.346;2022-07-05T03:26:50;94224.66;;;26.86;43.20
65359;BME280;52491;45.900;6.346;2022-07-05T03:29:16;94230.25;;;26.85;43.63
65359;BME280;52491;45.900;6.346;2022-07-05T03:31:41;94217.16;;;26.83;43.63
65359;BME280;52491;45.900;6.346;2022-07-05T03:34:07;94229.47;;;26.84;43.60
65359;BME280;52491;45.900;6.346;2022-07-05T03:36:33;94232.94;;;26.85;43.14
65359;BME280;52491;45.900;6.346;2022-07-05T03:38:59;94232.13;;;26.84;43.43
65359;BME280;52491;45.900;6.346;2022-07-05T03:41:24;94237.50;;;26.84;43.43
65359;BME280;52491;45.900;6.346;2022-07-05T03:43:50;94238.56;;;26.83;43.37
65359;BME280;52491;45.900;6.346;2022-07-05T03:46:15;94234.03;;;26.84;43.35
65359;BME280;52491;45.900;6.346;2022-07-05T03:48:41;94233.47;;;26.82;43.47
65359;BME280;52491;45.900;6.346;2022-07-05T03:51:07;94233.47;;;26.82;43.67
65359;BME280;52491;45.900;6.346;2022-07-05T03:53:32;94233.47;;;26.82;43.70
65359;BME280;52491;45.900;6.346;2022-07-05T03:55:58;94241.50;;;26.82;43.70
65359;BME280;52491;45.900;6.346;2022-07-05T03:58:23;94242.31;;;26.82;43.31
65359;BME280;52491;45.900;6.346;2022-07-05T04:00:49;94246.06;;;26.81;43.34
65359;BME280;52491;45.900;6.346;2022-07-05T04:03:14;94247.09;;;26.80;43.66
65359;BME280;52491;45.900;6.346;2022-07-05T04:05:40;94254.09;;;26.81;43.44
65359;BME280;52491;45.900;6.346;2022-07-05T04:08:06;94260.78;;;26.78;43.57
65359;BME280;52491;45.900;6.346;2022-07-05T04:10:33;94258.91;;;26.79;43.71
65359;BME280;52491;45.900;6.346;2022-07-05T04:13:00;94266.66;;;26.81;43.55
65359;BME280;52491;45.900;6.346;2022-07-05T04:15:25;94260.47;;;26.80;43.28
65359;BME280;52491;45.900;6.346;2022-07-05T04:17:53;94265.31;;;26.83;43.50
65359;BME280;52491;45.900;6.346;2022-07-05T04:20:19;94259.44;;;26.86;43.52
65359;BME280;52491;45.900;6.346;2022-07-05T04:22:48;94262.09;;;26.86;43.26
65359;BME280;52491;45.900;6.346;2022-07-05T04:25:15;94264.00;;;26.81;43.53
65359;BME280;52491;45.900;6.346;2022-07-05T04:27:52;94262.66;;;26.78;43.49
65359;BME280;52491;45.900;6.346;2022-07-05T04:30:19;94260.47;;;26.80;43.59
65359;BME280;52491;45.900;6.346;2022-07-05T04:32:45;94257.81;;;26.80;43.37
65359;BME280;52491;45.900;6.346;2022-07-05T04:35:12;94263.69;;;26.82;43.09
65359;BME280;52491;45.900;6.346;2022-07-05T04:37:38;94260.22;;;26.82;43.30
65359;BME280;52491;45.900;6.346;2022-07-05T04:40:05;94258.63;;;26.81;43.51
65359;BME280;52491;45.900;6.346;2022-07-05T04:42:31;94263.69;;;26.77;43.42
65359;BME280;52491;45.900;6.346;2022-07-05T04:44:57;94264.53;;;26.77;43.56
65359;BME280;52491;45.900;6.346;2022-07-05T04:47:23;94268.00;;;26.83;43.30
65359;BME280;52491;45.900;6.346;2022-07-05T04:49:51;94264.25;;;26.79;42.87
65359;BME280;52491;45.900;6.346;2022-07-05T04:52:17;94267.19;;;26.72;42.60
65359;BME280;52491;45.900;6.346;2022-07-05T04:54:42;94262.38;;;26.64;42.86
65359;BME280;52491;45.900;6.346;2022-07-05T04:57:08;94270.13;;;26.61;42.78
65359;BME280;52491;45.900;6.346;2022-07-05T04:59:34;94273.63;;;26.61;42.45
65359;BME280;52491;45.900;6.346;2022-07-05T05:01:59;94273.06;;;26.64;42.32
65359;BME280;52491;45.900;6.346;2022-07-05T05:04:25;94269.06;;;26.62;42.25
65359;BME280;52491;45.900;6.346;2022-07-05T05:06:50;94269.59;;;26.59;42.57
65359;BME280;52491;45.900;6.346;2022-07-05T05:09:17;94269.59;;;26.53;42.28
65359;BME280;52491;45.900;6.346;2022-07-05T05:11:42;94279.91;;;26.09;42.86
65359;BME280;52491;45.900;6.346;2022-07-05T05:14:08;94278.63;;;25.59;43.75
65359;BME280;52491;45.900;6.346;2022-07-05T05:16:34;94282.41;;;25.20;44.85
65359;BME280;52491;45.900;6.346;2022-07-05T05:19:00;94287.28;;;24.91;45.65
65359;BME280;52491;45.900;6.346;2022-07-05T05:21:27;94294.81;;;24.67;46.21
65359;BME280;52491;45.900;6.346;2022-07-05T05:23:52;94293.59;;;24.48;46.41
65359;BME280;52491;45.900;6.346;2022-07-05T05:26:18;94290.75;;;24.32;47.09
65359;BME280;52491;45.900;6.346;2022-07-05T05:28:44;94287.19;;;24.22;47.44
65359;BME280;52491;45.900;6.346;2022-07-05T05:31:09;94290.28;;;24.13;47.94
65359;BME280;52491;45.900;6.346;2022-07-05T05:33:35;94289.47;;;24.13;47.56
65359;BME280;52491;45.900;6.346;2022-07-05T05:36:01;94290.13;;;24.25;47.79
65359;BME280;52491;45.900;6.346;2022-07-05T05:38:27;94295.06;;;24.39;47.63
65359;BME280;52491;45.900;6.346;2022-07-05T05:40:52;94300.53;;;24.49;47.22
65359;BME280;52491;45.900;6.346;2022-07-05T05:43:18;94293.94;;;24.56;47.43
65359;BME280;52491;45.900;6.346;2022-07-05T05:45:44;94298.75;;;24.60;47.36
65359;BME280;52491;45.900;6.346;2022-07-05T05:48:09;94301.78;;;24.68;47.08
65359;BME280;52491;45.900;6.346;2022-07-05T05:50:36;94300.69;;;24.69;47.17
65359;BME280;52491;45.900;6.346;2022-07-05T05:53:04;94302.84;;;24.72;47.27
65359;BME280;52491;45.900;6.346;2022-07-05T05:55:30;94311.41;;;24.74;47.35
65359;BME280;52491;45.900;6.346;2022-07-05T05:57:57;94313.63;;;24.83;47.12
65359;BME280;52491;45.900;6.346;2022-07-05T06:00:35;94310.16;;;24.82;47.58
65359;BME280;52491;45.900;6.346;2022-07-05T06:03:00;94306.97;;;24.85;47.12
65359;BME280;52491;45.900;6.346;2022-07-05T06:05:26;94311.47;;;24.79;47.49
65359;BME280;52491;45.900;6.346;2022-07-05T06:07:53;94317.84;;;24.78;47.63
65359;BME280;52491;45.900;6.346;2022-07-05T06:10:23;94314.38;;;24.78;47.84
65359;BME280;52491;45.900;6.346;2022-07-05T06:12:49;94319.41;;;24.74;47.61
65359;BME280;52491;45.900;6.346;2022-07-05T06:15:17;94319.69;;;24.78;47.64
65359;BME280;52491;45.900;6.346;2022-07-05T06:17:43;94325.84;;;24.78;47.57
65359;BME280;52491;45.900;6.346;2022-07-05T06:20:10;94324.50;;;24.76;47.80
65359;BME280;52491;45.900;6.346;2022-07-05T06:22:36;94332.47;;;24.71;47.96
65359;BME280;52491;45.900;6.346;2022-07-05T06:25:03;94328.94;;;24.65;47.75
65359;BME280;52491;45.900;6.346;2022-07-05T06:27:28;94326.22;;;24.60;48.07
65359;BME280;52491;45.900;6.346;2022-07-05T06:29:54;94322.19;;;24.58;47.98
65359;BME280;52491;45.900;6.346;2022-07-05T06:32:20;94323.22;;;24.51;47.94
65359;BME280;52491;45.900;6.346;2022-07-05T06:34:45;94319.75;;;24.51;48.34
65359;BME280;52491;45.900;6.346;2022-07-05T06:37:11;94325.31;;;24.49;48.72
65359;BME280;52491;45.900;6.346;2022-07-05T06:39:36;94316.75;;;24.47;48.72
65359;BME280;52491;45.900;6.346;2022-07-05T06:42:02;94319.19;;;24.49;48.87
65359;BME280;52491;45.900;6.346;2022-07-05T06:44:28;94315.22;;;24.51;48.72
65359;BME280;52491;45.900;6.346;2022-07-05T06:46:53;94323.44;;;24.50;48.32
65359;BME280;52491;45.900;6.346;2022-07-05T06:49:19;94319.97;;;24.49;48.69
65359;BME280;52491;45.900;6.346;2022-07-05T06:51:45;94314.38;;;24.46;48.33
65359;BME280;52491;45.900;6.346;2022-07-05T06:54:12;94315.16;;;24.46;48.39
65359;BME280;52491;45.900;6.346;2022-07-05T06:56:37;94321.00;;;24.43;48.74
65359;BME280;52491;45.900;6.346;2022-07-05T06:59:03;94319.13;;;24.44;48.76
65359;BME280;52491;45.900;6.346;2022-07-05T07:01:29;94326.53;;;24.42;49.07
65359;BME280;52491;45.900;6.346;2022-07-05T07:03:54;94329.06;;;24.48;48.93
65359;BME280;52491;45.900;6.346;2022-07-05T07:06:20;94323.03;;;24.63;48.35
65359;BME280;52491;45.900;6.346;2022-07-05T07:08:46;94331.47;;;24.82;48.04
65359;BME280;52491;45.900;6.346;2022-07-05T07:11:31;94331.88;;;25.01;47.44
65359;BME280;52491;45.900;6.346;2022-07-05T07:13:57;94325.53;;;25.07;47.77
65359;BME280;52491;45.900;6.346;2022-07-05T07:16:23;94325.63;;;25.17;47.29
65359;BME280;52491;45.900;6.346;2022-07-05T07:18:48;94317.47;;;25.29;47.25
65359;BME280;52491;45.900;6.346;2022-07-05T07:21:14;94320.72;;;25.41;46.81
65359;BME280;52491;45.900;6.346;2022-07-05T07:23:39;94321.56;;;25.47;46.99
65359;BME280;52491;45.900;6.346;2022-07-05T07:26:05;94319.19;;;25.56;46.40
65359;BME280;52491;45.900;6.346;2022-07-05T07:28:31;94316.78;;;25.54;46.72
65359;BME280;52491;45.900;6.346;2022-07-05T07:30:56;94313.63;;;25.57;46.43
65359;BME280;52491;45.900;6.346;2022-07-05T07:33:22;94315.50;;;25.62;46.20
65359;BME280;52491;45.900;6.346;2022-07-05T07:35:47;94308.59;;;25.66;46.27
65359;BME280;52491;45.900;6.346;2022-07-05T07:38:13;94308.34;;;25.73;46.21
65359;BME280;52491;45.900;6.346;2022-07-05T07:40:38;94312.91;;;25.77;46.24
65359;BME280;52491;45.900;6.346;2022-07-05T07:43:04;94300.44;;;25.88;45.99
65359;BME280;52491;45.900;6.346;2022-07-05T07:45:30;94311.13;;;25.88;45.57
65359;BME280;52491;45.900;6.346;2022-07-05T07:47:56;94301.50;;;25.92;46.08
65359;BME280;52491;45.900;6.346;2022-07-05T07:50:22;94302.31;;;25.98;45.47
65359;BME280;52491;45.900;6.346;2022-07-05T07:52:48;94306.88;;;26.02;45.43
65359;BME280;52491;45.900;6.346;2022-07-05T07:55:14;94303.69;;;26.05;45.53
65359;BME280;52491;45.900;6.346;2022-07-05T07:57:40;94311.41;;;26.07;45.51
65359;BME280;52491;45.900;6.346;2022-07-05T08:00:07;94304.50;;;26.11;45.61
65359;BME280;52491;45.900;6.346;2022-07-05T08:02:32;94309.31;;;26.14;45.51
65359;BME280;52491;45.900;6.346;2022-07-05T08:04:58;94299.19;;;26.16;45.53
65359;BME280;52491;45.900;6.346;2022-07-05T08:07:24;94308.25;;;26.20;45.26
65359;BME280;52491;45.900;6.346;2022-07-05T08:09:50;94301.59;;;26.23;45.43
65359;BME280;52491;45.900;6.346;2022-07-05T08:12:18;94295.16;;;26.24;45.22
65359;BME280;52491;45.900;6.346;2022-07-05T08:14:43;94297.59;;;26.25;45.35
65359;BME280;52491;45.900;6.346;2022-07-05T08:17:09;94296.81;;;26.30;45.39
65359;BME280;52491;45.900;6.346;2022-07-05T08:19:35;94295.72;;;26.31;45.20
65359;BME280;52491;45.900;6.346;2022-07-05T08:22:20;94286.09;;;26.25;45.36
65359;BME280;52491;45.900;6.346;2022-07-05T08:24:46;94285.31;;;26.24;45.64
65359;BME280;52491;45.900;6.346;2022-07-05T08:27:11;94283.69;;;26.23;46.03
65359;BME280;52491;45.900;6.346;2022-07-05T08:29:38;94290.38;;;26.26;45.57
65359;BME280;52491;45.900;6.346;2022-07-05T08:32:04;94281.28;;;26.27;45.93
65359;BME280;52491;45.900;6.346;2022-07-05T08:34:30;94287.16;;;26.29;45.79
65359;BME280;52491;45.900;6.346;2022-07-05T08:36:55;94282.38;;;26.31;45.91
65359;BME280;52491;45.900;6.346;2022-07-05T08:39:21;94284.75;;;26.32;45.75
65359;BME280;52491;45.900;6.346;2022-07-05T08:41:50;94279.72;;;26.36;45.96
65359;BME280;52491;45.900;6.346;2022-07-05T08:44:21;94277.53;;;26.38;45.85
65359;BME280;52491;45.900;6.346;2022-07-05T08:46:48;94277.28;;;26.40;46.03
65359;BME280;52491;45.900;6.346;2022-07-05T08:49:14;94283.97;;;26.37;45.99
65359;BME280;52491;45.900;6.346;2022-07-05T08:51:42;94278.09;;;26.35;45.74
65359;BME280;52491;45.900;6.346;2022-07-05T08:54:11;94270.88;;;26.36;45.88
65359;BME280;52491;45.900;6.346;2022-07-05T08:56:38;94274.34;;;26.36;46.25
65359;BME280;52491;45.900;6.346;2022-07-05T08:59:06;94277.03;;;26.36;45.97
65359;BME280;52491;45.900;6.346;2022-07-05T09:01:32;94264.47;;;26.37;46.43
65359;BME280;52491;45.900;6.346;2022-07-05T09:04:03;94267.69;;;26.39;45.87
65359;BME280;52491;45.900;6.346;2022-07-05T09:06:31;94259.66;;;26.39;45.99
65359;BME280;52491;45.900;6.346;2022-07-05T09:08:58;94262.06;;;26.40;46.13
65359;BME280;52491;45.900;6.346;2022-07-05T09:11:38;94262.84;;;26.41;45.84
65359;BME280;52491;45.900;6.346;2022-07-05T09:14:06;94259.13;;;26.42;46.23
65359;BME280;52491;45.900;6.346;2022-07-05T09:16:34;94259.94;;;26.42;46.01
65359;BME280;52491;45.900;6.346;2022-07-05T09:19:07;94256.16;;;26.43;45.93
65359;BME280;52491;45.900;6.346;2022-07-05T09:21:33;94255.38;;;26.43;46.36
65359;BME280;52491;45.900;6.346;2022-07-05T09:24:00;94233.72;;;26.44;46.07
65359;BME280;52491;45.900;6.346;2022-07-05T09:26:44;94246.56;;;26.47;46.30
65359;BME280;52491;45.900;6.346;2022-07-05T09:29:17;94240.94;;;26.49;46.29
65359;BME280;52491;45.900;6.346;2022-07-05T09:31:45;94244.97;;;26.51;45.90
65359;BME280;52491;45.900;6.346;2022-07-05T09:34:13;94249.28;;;26.52;46.11
65359;BME280;52491;45.900;6.346;2022-07-05T09:36:53;94250.59;;;26.55;45.97
65359;BME280;52491;45.900;6.346;2022-07-05T09:39:39;94248.75;;;26.55;46.15
65359;BME280;52491;45.900;6.346;2022-07-05T09:44:53;94243.41;;;26.55;46.13
65359;BME280;52491;45.900;6.346;2022-07-05T09:47:23;94236.97;;;26.56;45.76
65359;BME280;52491;45.900;6.346;2022-07-05T09:49:54;94225.19;;;26.58;45.87
65359;BME280;52491;45.900;6.346;2022-07-05T09:52:37;94227.88;;;26.58;45.71
65359;BME280;52491;45.900;6.346;2022-07-05T09:55:15;94220.13;;;26.56;45.67
65359;BME280;52491;45.900;6.346;2022-07-05T09:57:42;94213.97;;;26.55;45.87
65359;BME280;52491;45.900;6.346;2022-07-05T10:00:11;94227.88;;;26.58;46.12
65359;BME280;52491;45.900;6.346;2022-07-05T10:02:45;94227.59;;;26.59;45.89
65359;BME280;52491;45.900;6.346;2022-07-05T10:07:45;94225.72;;;26.60;45.78
65359;BME280;52491;45.900;6.346;2022-07-05T10:10:16;94233.22;;;26.63;45.68
65359;BME280;52491;45.900;6.346;2022-07-05T10:12:43;94222.81;;;26.61;45.63
65359;BME280;52491;45.900;6.346;2022-07-05T10:15:12;94229.50;;;26.64;45.81
65359;BME280;52491;45.900;6.346;2022-07-05T10:17:44;94232.16;;;26.64;45.59
65359;BME280;52491;45.900;6.346;2022-07-05T10:23:10;94235.88;;;26.63;45.48
65359;BME280;52491;45.900;6.346;2022-07-05T10:25:38;94234.84;;;26.64;45.61
65359;BME280;52491;45.900;6.346;2022-07-05T10:28:04;94226.53;;;26.65;45.72
65359;BME280;52491;45.900;6.346;2022-07-05T10:30:31;94226.28;;;26.67;45.77
65359;BME280;52491;45.900;6.346;2022-07-05T10:32:58;94222.78;;;26.66;45.68
65359;BME280;52491;45.900;6.346;2022-07-05T10:35:24;94225.19;;;26.68;45.27
65359;BME280;52491;45.900;6.346;2022-07-05T10:37:50;94226.00;;;26.68;45.48
65359;BME280;52491;45.900;6.346;2022-07-05T10:40:17;94223.31;;;26.68;45.37
65359;BME280;52491;45.900;6.346;2022-07-05T10:42:48;94229.22;;;26.70;45.24
65359;BME280;52491;45.900;6.346;2022-07-05T10:48:27;94231.59;;;26.72;45.05
65359;BME280;52491;45.900;6.346;2022-07-05T10:50:53;94234.56;;;26.70;45.09
65359;BME280;52491;45.900;6.346;2022-07-05T10:55:57;94235.09;;;26.72;45.02
65359;BME280;52491;45.900;6.346;2022-07-05T10:58:26;94230.00;;;26.71;45.22
65359;BME280;52491;45.900;6.346;2022-07-05T11:06:31;94234.00;;;26.73;44.92
65359;BME280;52491;45.900;6.346;2022-07-05T11:11:27;94241.25;;;26.73;44.75
65359;BME280;52491;45.900;6.346;2022-07-05T11:13:53;94247.66;;;26.72;44.79
65359;BME280;52491;45.900;6.346;2022-07-05T11:16:31;94229.75;;;26.72;44.68
65359;BME280;52491;45.900;6.346;2022-07-05T11:19:29;94242.84;;;26.74;44.49
65359;BME280;52491;45.900;6.346;2022-07-05T11:22:03;94244.19;;;26.76;44.59
65359;BME280;52491;45.900;6.346;2022-07-05T11:24:36;94244.97;;;26.77;44.68
65359;BME280;52491;45.900;6.346;2022-07-05T11:27:13;94244.97;;;26.77;44.40
65359;BME280;52491;45.900;6.346;2022-07-05T11:29:42;94242.03;;;26.78;44.33
65359;BME280;52491;45.900;6.346;2022-07-05T11:34:37;94244.44;;;26.80;44.32
65359;BME280;52491;45.900;6.346;2022-07-05T11:37:25;94244.97;;;26.82;44.23
65359;BME280;52491;45.900;6.346;2022-07-05T11:42:32;94238.84;;;26.82;44.39
65359;BME280;52491;45.900;6.346;2022-07-05T11:45:01;94233.22;;;26.83;44.21
65359;BME280;52491;45.900;6.346;2022-07-05T11:47:28;94237.50;;;26.84;44.26
65359;BME280;52491;45.900;6.346;2022-07-05T11:49:56;94228.38;;;26.85;44.22
65359;BME280;52491;45.900;6.346;2022-07-05T11:52:32;94229.19;;;26.86;44.17
65359;BME280;52491;45.900;6.346;2022-07-05T11:55:00;94228.13;;;26.87;44.09
65359;BME280;52491;45.900;6.346;2022-07-05T11:57:28;94239.63;;;26.87;43.73
65359;BME280;52491;45.900;6.346;2022-07-05T11:59:54;94226.25;;;26.87;44.07
65359;BME280;52491;45.900;6.346;2022-07-05T12:02:20;94232.69;;;26.86;44.07
65359;BME280;52491;45.900;6.346;2022-07-05T12:04:53;94231.34;;;26.89;43.71
65359;BME280;52491;45.900;6.346;2022-07-05T12:07:33;94224.91;;;26.90;43.85
65359;BME280;52491;45.900;6.346;2022-07-05T12:10:01;94232.94;;;26.90;43.78
65359;BME280;52491;45.900;6.346;2022-07-05T12:12:46;94217.69;;;26.90;43.90
65359;BME280;52491;45.900;6.346;2022-07-05T12:15:17;94216.59;;;26.91;43.88
65359;BME280;52491;45.900;6.346;2022-07-05T12:17:49;94216.34;;;26.93;43.98
65359;BME280;52491;45.900;6.346;2022-07-05T12:20:21;94219.81;;;26.93;43.61
65359;BME280;52491;45.900;6.346;2022-07-05T12:22:47;94217.44;;;26.92;43.83
65359;BME280;52491;45.900;6.346;2022-07-05T12:25:17;94224.09;;;26.94;44.10
65359;BME280;52491;45.900;6.346;2022-07-05T12:27:45;94219.56;;;26.95;44.25
65359;BME280;52491;45.900;6.346;2022-07-05T12:30:13;94224.91;;;26.95;43.88
65359;BME280;52491;45.900;6.346;2022-07-05T12:38:01;94225.41;;;26.97;44.24
65359;BME280;52491;45.900;6.346;2022-07-05T12:40:27;94216.34;;;26.98;43.93
65359;BME280;52491;45.900;6.346;2022-07-05T12:43:07;94223.03;;;27.00;44.07
65359;BME280;52491;45.900;6.346;2022-07-05T12:45:33;94217.38;;;26.97;43.98
65359;BME280;52491;45.900;6.346;2022-07-05T12:48:01;94214.47;;;26.98;44.26
65359;BME280;52491;45.900;6.346;2022-07-05T12:50:29;94221.16;;;27.01;44.19
65359;BME280;52491;45.900;6.346;2022-07-05T12:53:09;94221.16;;;27.01;44.22
65359;BME280;52491;45.900;6.346;2022-07-05T12:56:10;94215.25;;;26.99;44.26
65359;BME280;52491;45.900;6.346;2022-07-05T12:59:04;94214.47;;;26.98;44.15
65359;BME280;52491;45.900;6.346;2022-07-05T13:01:31;94226.75;;;26.99;44.31
65359;BME280;52491;45.900;6.346;2022-07-05T13:04:16;94227.28;;;27.01;44.24
65359;BME280;52491;45.900;6.346;2022-07-05T13:06:51;94224.91;;;27.00;44.13
65359;BME280;52491;45.900;6.346;2022-07-05T13:12:17;94217.38;;;27.02;44.06
65359;BME280;52491;45.900;6.346;2022-07-05T13:14:48;94215.78;;;27.01;44.28
65359;BME280;52491;45.900;6.346;2022-07-05T13:17:16;94208.31;;;27.03;44.05
65359;BME280;52491;45.900;6.346;2022-07-05T13:19:44;94212.31;;;27.06;44.10
65359;BME280;52491;45.900;6.346;2022-07-05T13:22:09;94218.47;;;27.06;44.16
65359;BME280;52491;45.900;6.346;2022-07-05T13:24:36;94224.63;;;27.07;43.92
65359;BME280;52491;45.900;6.346;2022-07-05T13:27:02;94218.47;;;27.06;44.17
65359;BME280;52491;45.900;6.346;2022-07-05T13:29:28;94216.59;;;27.07;44.10
65359;BME280;52491;45.900;6.346;2022-07-05T13:31:54;94215.50;;;27.08;44.10
65359;BME280;52491;45.900;6.346;2022-07-05T13:34:19;94211.22;;;27.07;44.12
65359;BME280;52491;45.900;6.346;2022-07-05T13:36:49;94213.63;;;27.08;44.35
65359;BME280;52491;45.900;6.346;2022-07-05T13:39:17;94211.78;;;27.09;44.37